createdAt,value
2023-02-23T00:02:04.551Z,101546.50
2023-02-23T00:04:31.483Z,101534.75
2023-02-23T00:06:58.562Z,101546.56
2023-02-23T00:09:25.403Z,101554.53
2023-02-23T00:11:56.150Z,101546.06
2023-02-23T00:14:27.527Z,101551.28
2023-02-23T00:16:55.471Z,101548.03
2023-02-23T00:19:24.855Z,101560.59
2023-02-23T00:21:52.618Z,101560.88
2023-02-23T00:24:19.951Z,101564.47
2023-02-23T00:26:48.109Z,101553.50
2023-02-23T00:29:17.985Z,101569.94
2023-02-23T00:31:46.386Z,101570.75
2023-02-23T00:34:15.395Z,101580.91
2023-02-23T00:36:43.030Z,101577.03
2023-02-23T00:39:38.058Z,101579.50
2023-02-23T00:42:06.695Z,101587.44
2023-02-23T00:44:34.894Z,101589.34
2023-02-23T00:47:02.160Z,101584.69
2023-02-23T00:49:53.896Z,101587.44
2023-02-23T00:52:20.637Z,101586.91
2023-02-23T00:55:08.396Z,101586.06
2023-02-23T00:57:35.440Z,101590.72
2023-02-23T01:00:17.398Z,101581.72
2023-02-23T01:02:44.559Z,101578.69
2023-02-23T01:05:11.936Z,101584.16
2023-02-23T01:07:40.092Z,101582.50
2023-02-23T01:10:19.638Z,101575.41
2023-02-23T01:12:48.860Z,101583.63
2023-02-23T01:15:16.085Z,101592.41
2023-02-23T01:17:43.222Z,101585.84
2023-02-23T01:20:19.580Z,101596.25
2023-02-23T01:22:48.455Z,101600.66
2023-02-23T01:25:19.074Z,101592.19
2023-02-23T01:27:46.273Z,101593.56
2023-02-23T01:30:15.880Z,101596.59
2023-02-23T01:32:42.705Z,101607.53
2023-02-23T01:35:10.985Z,101607.28
2023-02-23T01:37:41.825Z,101618.22
2023-02-23T01:40:39.187Z,101611.66
2023-02-23T01:43:26.102Z,101619.34
2023-02-23T01:45:55.722Z,101624.56
2023-02-23T01:48:32.624Z,101618.81
2023-02-23T01:51:15.275Z,101631.97
2023-02-23T01:53:48.452Z,101632.50
2023-02-23T01:56:21.553Z,101628.13
2023-02-23T01:58:54.787Z,101643.19
2023-02-23T02:01:23.380Z,101645.66
2023-02-23T02:03:56.807Z,101644.00
2023-02-23T02:06:28.905Z,101636.88
2023-02-23T02:09:01.208Z,101633.63
2023-02-23T02:11:37.150Z,101640.75
2023-02-23T02:14:13.204Z,101641.28
2023-02-23T02:16:54.716Z,101649.50
2023-02-23T02:19:47.167Z,101656.88
2023-02-23T02:22:14.462Z,101667.00
2023-02-23T02:25:13.589Z,101669.22
2023-02-23T02:27:59.591Z,101671.41
2023-02-23T02:30:52.912Z,101675.53
2023-02-23T02:33:48.368Z,101683.44
2023-02-23T02:36:43.056Z,101684.00
2023-02-23T02:39:35.186Z,101677.16
2023-02-23T02:42:20.601Z,101687.81
2023-02-23T02:45:13.955Z,101682.09
2023-02-23T02:47:49.006Z,101680.16
2023-02-23T02:50:31.555Z,101679.06
2023-02-23T02:53:07.291Z,101682.09
2023-02-23T02:55:37.772Z,101680.16
2023-02-23T02:58:08.056Z,101683.16
2023-02-23T03:01:08.993Z,101676.31
2023-02-23T03:03:57.290Z,101684.78
2023-02-23T03:06:49.907Z,101692.19
2023-02-23T03:09:53.947Z,101687.81
2023-02-23T03:12:54.052Z,101693.28
2023-02-23T03:15:59.532Z,101703.63
2023-02-23T03:18:56.872Z,101695.72
2023-02-23T03:21:48.845Z,101691.59
2023-02-23T03:24:48.514Z,101695.16
2023-02-23T03:27:54.490Z,101692.69
2023-02-23T03:30:55.757Z,101703.63
2023-02-23T03:33:53.328Z,101695.41
2023-02-23T03:36:46.535Z,101706.91
2023-02-23T03:39:38.771Z,101695.69
2023-02-23T03:42:30.420Z,101702.78
2023-02-23T03:45:18.042Z,101697.59
2023-02-23T03:48:04.497Z,101707.41
2023-02-23T03:51:01.686Z,101710.41
2023-02-23T03:53:56.626Z,101709.59
2023-02-23T03:56:45.789Z,101711.78
2023-02-23T03:59:34.165Z,101728.19
2023-02-23T04:02:21.120Z,101726.53
2023-02-23T04:05:07.818Z,101733.09
2023-02-23T04:07:53.363Z,101724.91
2023-02-23T04:10:41.031Z,101727.09
2023-02-23T04:13:17.314Z,101734.19
2023-02-23T04:16:08.976Z,101735.28
2023-02-23T04:18:38.876Z,101730.91
2023-02-23T04:21:08.591Z,101733.34
2023-02-23T04:23:38.025Z,101735.81
2023-02-23T04:26:05.265Z,101732.50
2023-02-23T04:28:31.964Z,101737.41
2023-02-23T04:30:58.677Z,101739.31
2023-02-23T04:33:25.680Z,101746.97
2023-02-23T04:35:54.167Z,101752.13
2023-02-23T04:38:21.973Z,101754.31
2023-02-23T04:40:49.019Z,101744.50
2023-02-23T04:43:18.768Z,101742.53
2023-02-23T04:45:45.710Z,101751.00
2023-02-23T04:48:12.477Z,101745.00
2023-02-23T04:50:39.761Z,101740.06
2023-02-23T04:53:06.626Z,101748.25
2023-02-23T04:55:33.614Z,101746.28
2023-02-23T04:58:01.896Z,101752.03
2023-02-23T05:00:29.712Z,101760.22
2023-02-23T05:02:57.629Z,101751.50
2023-02-23T05:05:24.671Z,101742.75
2023-02-23T05:07:51.673Z,101752.56
2023-02-23T05:10:18.408Z,101747.94
2023-02-23T05:12:45.146Z,101742.75
2023-02-23T05:15:12.020Z,101742.75
2023-02-23T05:17:42.090Z,101736.44
2023-02-23T05:20:13.205Z,101732.88
2023-02-23T05:22:40.084Z,101726.34
2023-02-23T05:25:08.836Z,101719.78
2023-02-23T05:27:36.890Z,101715.16
2023-02-23T05:30:04.893Z,101703.41
2023-02-23T05:32:31.701Z,101708.84
2023-02-23T05:34:58.540Z,101725.22
2023-02-23T05:37:25.279Z,101723.00
2023-02-23T05:39:51.992Z,101723.00
2023-02-23T05:42:19.006Z,101722.47
2023-02-23T05:44:45.778Z,101731.19
2023-02-23T05:47:12.554Z,101733.66
2023-02-23T05:49:39.284Z,101730.34
2023-02-23T05:52:06.141Z,101727.91
2023-02-23T05:54:32.838Z,101738.81
2023-02-23T05:57:01.712Z,101733.88
2023-02-23T05:59:28.738Z,101730.09
2023-02-23T06:01:55.537Z,101726.25
2023-02-23T06:04:23.416Z,101727.91
2023-02-23T06:06:50.489Z,101721.63
2023-02-23T06:09:17.300Z,101722.69
2023-02-23T06:11:45.211Z,101726.53
2023-02-23T06:14:12.161Z,101725.16
2023-02-23T06:16:39.453Z,101715.06
2023-02-23T06:19:06.426Z,101728.94
2023-02-23T06:21:33.522Z,101722.66
2023-02-23T06:24:01.087Z,101729.47
2023-02-23T06:26:29.151Z,101732.72
2023-02-23T06:28:56.361Z,101735.44
2023-02-23T06:31:23.339Z,101721.56
2023-02-23T06:33:51.016Z,101718.28
2023-02-23T06:36:18.038Z,101720.19
2023-02-23T06:38:45.180Z,101719.06
2023-02-23T06:41:12.442Z,101726.47
2023-02-23T06:43:39.117Z,101738.75
2023-02-23T06:46:06.366Z,101741.72
2023-02-23T06:48:33.213Z,101746.88
2023-02-23T06:51:00.207Z,101728.03
2023-02-23T06:53:27.292Z,101738.41
2023-02-23T06:55:53.973Z,101743.31
2023-02-23T06:58:20.731Z,101747.94
2023-02-23T07:00:47.470Z,101753.41
2023-02-23T07:03:14.380Z,101758.03
2023-02-23T07:05:41.120Z,101770.84
2023-02-23T07:08:08.065Z,101758.84
2023-02-23T07:10:35.228Z,101770.31
2023-02-23T07:13:02.098Z,101779.06
2023-02-23T07:15:29.135Z,101774.72
2023-02-23T07:17:56.910Z,101779.06
2023-02-23T07:20:23.677Z,101792.16
2023-02-23T07:22:51.024Z,101792.72
2023-02-23T07:25:18.286Z,101799.28
2023-02-23T07:27:45.429Z,101793.81
2023-02-23T07:30:12.846Z,101806.38
2023-02-23T07:32:39.991Z,101804.75
2023-02-23T07:35:07.924Z,101801.19
2023-02-23T07:37:34.921Z,101812.66
2023-02-23T07:40:01.823Z,101815.94
2023-02-23T07:42:28.861Z,101822.22
2023-02-23T07:44:56.284Z,101828.25
2023-02-23T07:47:30.317Z,101819.00
2023-02-23T07:50:02.496Z,101826.09
2023-02-23T07:52:29.773Z,101832.94
2023-02-23T07:54:56.587Z,101830.78
2023-02-23T07:57:24.988Z,101834.06
2023-02-23T07:59:52.031Z,101843.06
2023-02-23T08:02:19.007Z,101847.47
2023-02-23T08:04:45.861Z,101851.59
2023-02-23T08:07:12.577Z,101859.50
2023-02-23T08:09:39.495Z,101849.13
2023-02-23T08:12:06.614Z,101861.44
2023-02-23T08:14:33.412Z,101862.28
2023-02-23T08:17:01.745Z,101853.84
2023-02-23T08:19:28.733Z,101850.81
2023-02-23T08:21:56.562Z,101855.25
2023-02-23T08:24:23.523Z,101862.97
2023-02-23T08:26:50.488Z,101874.47
2023-02-23T08:29:17.605Z,101865.22
2023-02-23T08:31:44.718Z,101877.25
2023-02-23T08:34:11.669Z,101865.75
2023-02-23T08:36:39.300Z,101868.78
2023-02-23T08:39:07.564Z,101875.38
2023-02-23T08:41:34.923Z,101870.22
2023-02-23T08:44:01.645Z,101862.56
2023-02-23T08:46:28.391Z,101858.22
2023-02-23T08:48:56.669Z,101866.44
2023-02-23T08:51:23.717Z,101861.28
2023-02-23T08:53:50.531Z,101858.84
2023-02-23T08:56:17.341Z,101868.16
2023-02-23T08:58:44.131Z,101872.00
2023-02-23T09:01:19.346Z,101855.34
2023-02-23T09:03:46.322Z,101870.13
2023-02-23T09:06:18.141Z,101869.31
2023-02-23T09:08:45.424Z,101873.16
2023-02-23T09:11:12.138Z,101887.97
2023-02-23T09:13:38.902Z,101881.44
2023-02-23T09:16:07.824Z,101872.44
2023-02-23T09:18:35.586Z,101881.47
2023-02-23T09:21:08.585Z,101884.78
2023-02-23T09:23:36.064Z,101878.50
2023-02-23T09:26:06.652Z,101881.81
2023-02-23T09:28:34.946Z,101877.19
2023-02-23T09:31:10.023Z,101879.94
2023-02-23T09:33:37.165Z,101880.78
2023-02-23T09:36:18.212Z,101883.25
2023-02-23T09:38:47.027Z,101883.81
2023-02-23T09:41:57.589Z,101881.38
2023-02-23T09:45:05.749Z,101883.56
2023-02-23T09:48:04.330Z,101883.88
2023-02-23T09:50:34.997Z,101878.41
2023-02-23T09:53:04.975Z,101892.63
2023-02-23T09:55:32.541Z,101897.31
2023-02-23T09:58:08.543Z,101897.03
2023-02-23T10:00:43.659Z,101894.28
2023-02-23T10:03:19.645Z,101900.34
2023-02-23T10:05:53.568Z,101888.28
2023-02-23T10:08:23.189Z,101894.84
2023-02-23T10:11:05.179Z,101892.66
2023-02-23T10:13:46.587Z,101887.72
2023-02-23T10:16:54.638Z,101886.06
2023-02-23T10:19:43.056Z,101884.94
2023-02-23T10:22:12.712Z,101890.13
2023-02-23T10:24:43.385Z,101888.78
2023-02-23T10:27:15.956Z,101889.28
2023-02-23T10:29:47.843Z,101887.63
2023-02-23T10:32:22.512Z,101884.88
2023-02-23T10:34:53.922Z,101879.66
2023-02-23T10:37:21.082Z,101881.84
2023-02-23T10:39:49.978Z,101887.59
2023-02-23T10:42:23.199Z,101890.31
2023-02-23T10:44:50.618Z,101890.31
2023-02-23T10:47:25.216Z,101890.81
2023-02-23T10:49:56.814Z,101890.53
2023-02-23T10:52:52.070Z,101900.63
2023-02-23T10:55:25.407Z,101895.63
2023-02-23T10:58:04.126Z,101900.00
2023-02-23T11:00:34.195Z,101898.88
2023-02-23T11:03:03.444Z,101893.91
2023-02-23T11:05:58.429Z,101895.22
2023-02-23T11:08:34.780Z,101892.16
2023-02-23T11:11:19.429Z,101897.34
2023-02-23T11:13:49.775Z,101897.28
2023-02-23T11:16:20.277Z,101899.22
2023-02-23T11:19:00.839Z,101884.94
2023-02-23T11:21:38.454Z,101889.84
2023-02-23T11:24:26.540Z,101886.53
2023-02-23T11:26:58.039Z,101885.69
2023-02-23T11:29:35.412Z,101885.63
2023-02-23T11:32:26.716Z,101880.38
2023-02-23T11:35:11.851Z,101877.03
2023-02-23T11:37:38.670Z,101878.41
2023-02-23T11:40:39.960Z,101866.25
2023-02-23T11:43:07.451Z,101873.63
2023-02-23T11:45:47.352Z,101866.72
2023-02-23T11:48:23.889Z,101877.16
2023-02-23T11:50:50.736Z,101872.75
2023-02-23T11:53:30.147Z,101861.75
2023-02-23T11:56:02.778Z,101860.09
2023-02-23T11:58:49.853Z,101855.94
2023-02-23T12:01:24.358Z,101855.63
2023-02-23T12:03:56.657Z,101849.22
2023-02-23T12:06:36.853Z,101857.44
2023-02-23T12:09:29.571Z,101856.84
2023-02-23T12:12:15.552Z,101856.28
2023-02-23T12:15:00.216Z,101849.59
2023-02-23T12:17:32.942Z,101841.31
2023-02-23T12:20:25.611Z,101846.75
2023-02-23T12:22:54.840Z,101839.00
2023-02-23T12:25:40.809Z,101828.19
2023-02-23T12:28:38.956Z,101836.38
2023-02-23T12:31:25.969Z,101815.38
2023-02-23T12:34:10.763Z,101818.91
2023-02-23T12:36:43.701Z,101816.00
2023-02-23T12:39:22.493Z,101801.06
2023-02-23T12:42:00.810Z,101799.31
2023-02-23T12:44:52.945Z,101806.28
2023-02-23T12:47:27.291Z,101814.09
2023-02-23T12:50:07.437Z,101806.59
2023-02-23T12:52:38.797Z,101801.50
2023-02-23T12:55:11.916Z,101798.06
2023-02-23T12:57:52.205Z,101786.38
2023-02-23T13:00:46.008Z,101782.41
2023-02-23T13:03:41.688Z,101782.84
2023-02-23T13:06:22.914Z,101776.72
2023-02-23T13:08:59.360Z,101765.09
2023-02-23T13:11:51.209Z,101776.25
2023-02-23T13:14:35.638Z,101766.16
2023-02-23T13:17:37.992Z,101759.75
2023-02-23T13:20:22.667Z,101752.16
2023-02-23T13:22:51.616Z,101754.16
2023-02-23T13:25:50.774Z,101756.91
2023-02-23T13:28:39.663Z,101750.28
2023-02-23T13:31:20.575Z,101752.50
2023-02-23T13:33:49.617Z,101746.91
2023-02-23T13:36:19.683Z,101757.19
2023-02-23T13:39:17.973Z,101754.84
2023-02-23T13:42:00.103Z,101748.28
2023-02-23T13:44:49.358Z,101744.91
2023-02-23T13:47:32.824Z,101747.75
2023-02-23T13:50:22.739Z,101748.13
2023-02-23T13:52:49.994Z,101747.50
2023-02-23T13:55:32.691Z,101749.53
2023-02-23T13:58:23.263Z,101752.19
2023-02-23T14:01:04.449Z,101748.47
2023-02-23T14:03:37.322Z,101749.03
2023-02-23T14:06:04.570Z,101746.81
2023-02-23T14:08:39.105Z,101743.09
2023-02-23T14:11:06.820Z,101737.63
2023-02-23T14:13:41.402Z,101726.28
2023-02-23T14:16:15.657Z,101737.84
2023-02-23T14:19:08.204Z,101736.41
2023-02-23T14:21:37.171Z,101723.34
2023-02-23T14:24:19.535Z,101728.03
2023-02-23T14:27:04.726Z,101731.44
2023-02-23T14:29:40.249Z,101733.41
2023-02-23T14:32:13.282Z,101725.41
2023-02-23T14:35:01.096Z,101724.59
2023-02-23T14:37:34.735Z,101720.00
2023-02-23T14:40:09.113Z,101715.63
2023-02-23T14:42:39.155Z,101716.94
2023-02-23T14:45:29.189Z,101717.59
2023-02-23T14:48:01.585Z,101719.13
2023-02-23T14:50:34.297Z,101709.56
2023-02-23T14:53:04.267Z,101713.16
2023-02-23T14:55:35.538Z,101705.00
2023-02-23T14:58:21.496Z,101704.66
2023-02-23T15:00:49.164Z,101699.63
2023-02-23T15:03:15.915Z,101693.81
2023-02-23T15:05:44.558Z,101691.03
2023-02-23T15:08:18.499Z,101688.44
2023-02-23T15:10:48.049Z,101684.72
2023-02-23T15:13:29.238Z,101683.91
2023-02-23T15:15:58.570Z,101691.72
2023-02-23T15:18:34.734Z,101679.63
2023-02-23T15:21:08.308Z,101674.06
2023-02-23T15:23:37.870Z,101672.25
2023-02-23T15:26:32.069Z,101680.34
2023-02-23T15:29:11.370Z,101681.94
2023-02-23T15:31:41.280Z,101673.78
2023-02-23T15:34:12.136Z,101670.84
2023-02-23T15:36:41.310Z,101670.16
2023-02-23T15:39:16.653Z,101668.66
2023-02-23T15:41:48.476Z,101669.91
2023-02-23T15:44:22.891Z,101668.69
2023-02-23T15:46:56.098Z,101663.31
2023-02-23T15:49:28.975Z,101673.66
2023-02-23T15:52:19.502Z,101658.53
2023-02-23T15:55:00.177Z,101662.72
2023-02-23T15:57:34.057Z,101658.66
2023-02-23T16:00:10.132Z,101658.66
2023-02-23T16:02:37.824Z,101666.13
2023-02-23T16:05:25.723Z,101654.06
2023-02-23T16:08:05.462Z,101660.22
2023-02-23T16:10:47.144Z,101659.72
2023-02-23T16:13:19.825Z,101662.28
2023-02-23T16:15:50.139Z,101659.31
2023-02-23T16:18:21.119Z,101665.34
2023-02-23T16:20:56.234Z,101667.59
2023-02-23T16:23:37.261Z,101674.56
2023-02-23T16:26:12.178Z,101656.19
2023-02-23T16:28:45.034Z,101660.06
2023-02-23T16:31:14.206Z,101660.69
2023-02-23T16:33:45.004Z,101658.25
2023-02-23T16:36:12.380Z,101654.97
2023-02-23T16:39:04.263Z,101649.25
2023-02-23T16:41:33.105Z,101645.50
2023-02-23T16:44:05.276Z,101641.72
2023-02-23T16:46:53.534Z,101646.72
2023-02-23T16:49:23.647Z,101644.59
2023-02-23T16:51:51.330Z,101633.66
2023-02-23T16:54:18.211Z,101639.28
2023-02-23T16:56:47.412Z,101632.75
2023-02-23T16:59:17.707Z,101627.03
2023-02-23T17:01:49.966Z,101627.66
2023-02-23T17:04:18.305Z,101630.81
2023-02-23T17:06:47.329Z,101624.31
2023-02-23T17:09:14.462Z,101618.88
2023-02-23T17:11:44.014Z,101620.91
2023-02-23T17:14:24.645Z,101617.13
2023-02-23T17:16:52.060Z,101613.34
2023-02-23T17:19:18.937Z,101614.28
2023-02-23T17:21:46.979Z,101601.94
2023-02-23T17:24:15.843Z,101612.75
2023-02-23T17:26:44.003Z,101603.16
2023-02-23T17:29:10.759Z,101611.72
2023-02-23T17:31:38.417Z,101612.34
2023-02-23T17:34:06.262Z,101609.88
2023-02-23T17:36:32.976Z,101613.75
2023-02-23T17:38:59.916Z,101623.75
2023-02-23T17:41:27.913Z,101616.09
2023-02-23T17:43:54.997Z,101623.03
2023-02-23T17:46:24.407Z,101621.72
2023-02-23T17:48:52.386Z,101621.50
2023-02-23T17:51:21.531Z,101621.00
2023-02-23T17:53:48.484Z,101621.00
2023-02-23T17:56:16.413Z,101621.59
2023-02-23T17:58:43.094Z,101626.09
2023-02-23T18:01:10.016Z,101616.78
2023-02-23T18:03:37.355Z,101626.69
2023-02-23T18:06:07.848Z,101628.13
2023-02-23T18:08:39.256Z,101629.06
2023-02-23T18:11:06.580Z,101622.50
2023-02-23T18:13:34.596Z,101627.50
2023-02-23T18:16:09.619Z,101620.94
2023-02-23T18:18:42.366Z,101617.69
2023-02-23T18:21:19.108Z,101617.19
2023-02-23T18:23:46.523Z,101611.16
2023-02-23T18:26:17.357Z,101618.88
2023-02-23T18:28:45.921Z,101620.84
2023-02-23T18:31:15.833Z,101623.06
2023-02-23T18:33:44.853Z,101621.72
2023-02-23T18:36:35.502Z,101618.97
2023-02-23T18:39:06.080Z,101617.34
2023-02-23T18:41:33.593Z,101613.28
2023-02-23T18:44:06.457Z,101606.94
2023-02-23T18:46:33.846Z,101599.78
2023-02-23T18:49:01.009Z,101606.13
2023-02-23T18:51:29.898Z,101600.91
2023-02-23T18:53:57.190Z,101608.38
2023-02-23T18:56:27.281Z,101617.44
2023-02-23T18:58:57.410Z,101611.41
2023-02-23T19:01:28.221Z,101612.53
2023-02-23T19:03:57.303Z,101613.66
2023-02-23T19:06:25.314Z,101613.13
2023-02-23T19:08:55.497Z,101610.38
2023-02-23T19:11:29.880Z,101607.13
2023-02-23T19:14:02.237Z,101601.91
2023-02-23T19:16:31.480Z,101595.88
2023-02-23T19:18:59.674Z,101597.31
2023-02-23T19:21:27.885Z,101592.09
2023-02-23T19:24:00.002Z,101591.06
2023-02-23T19:26:29.576Z,101588.09
2023-02-23T19:28:58.253Z,101588.72
2023-02-23T19:31:26.308Z,101581.56
2023-02-23T19:33:56.450Z,101591.75
2023-02-23T19:36:29.866Z,101584.63
2023-02-23T19:39:06.337Z,101594.00
2023-02-23T19:41:34.138Z,101588.78
2023-02-23T19:44:05.576Z,101594.59
2023-02-23T19:46:32.547Z,101589.91
2023-02-23T19:49:00.281Z,101580.81
2023-02-23T19:51:28.160Z,101575.00
2023-02-23T19:54:02.206Z,101576.66
2023-02-23T19:56:29.389Z,101580.50
2023-02-23T19:58:57.503Z,101565.63
2023-02-23T20:01:27.851Z,101577.47
2023-02-23T20:03:55.822Z,101567.28
2023-02-23T20:06:25.593Z,101570.31
2023-02-23T20:08:52.745Z,101565.63
2023-02-23T20:11:20.342Z,101571.16
2023-02-23T20:13:47.384Z,101556.28
2023-02-23T20:16:17.480Z,101560.63
2023-02-23T20:18:44.926Z,101551.59
2023-02-23T20:21:18.235Z,101549.94
2023-02-23T20:23:47.571Z,101555.13
2023-02-23T20:26:18.102Z,101550.75
2023-02-23T20:28:44.987Z,101564.22
2023-02-23T20:31:26.231Z,101548.53
2023-02-23T20:33:56.159Z,101559.53
2023-02-23T20:36:24.771Z,101550.44
2023-02-23T20:38:52.507Z,101556.78
2023-02-23T20:41:20.229Z,101554.84
2023-02-23T20:43:47.406Z,101557.88
2023-02-23T20:46:16.433Z,101555.97
2023-02-23T20:48:43.932Z,101559.84
2023-02-23T20:51:18.016Z,101559.84
2023-02-23T20:53:46.952Z,101554.63
2023-02-23T20:56:16.870Z,101549.13
2023-02-23T20:58:44.563Z,101560.97
2023-02-23T21:01:16.210Z,101551.88
2023-02-23T21:03:46.421Z,101562.59
2023-02-23T21:06:16.384Z,101555.97
2023-02-23T21:08:46.904Z,101562.88
2023-02-23T21:11:13.648Z,101564.00
2023-02-23T21:13:40.892Z,101565.41
2023-02-23T21:16:08.205Z,101565.41
2023-02-23T21:18:36.312Z,101562.16
2023-02-23T21:21:10.147Z,101557.16
2023-02-23T21:23:39.914Z,101557.16
2023-02-23T21:26:16.467Z,101557.16
2023-02-23T21:28:45.613Z,101566.22
2023-02-23T21:31:14.098Z,101558.28
2023-02-23T21:33:44.891Z,101565.72
2023-02-23T21:36:12.736Z,101556.97
2023-02-23T21:38:44.796Z,101552.56
2023-02-23T21:41:15.604Z,101552.88
2023-02-23T21:43:44.830Z,101553.16
2023-02-23T21:46:15.924Z,101547.66
2023-02-23T21:48:53.666Z,101551.22
2023-02-23T21:51:20.847Z,101552.34
2023-02-23T21:58:48.568Z,101541.94
2023-02-23T22:01:38.396Z,101535.63
2023-02-23T22:04:25.415Z,101540.31
2023-02-23T22:07:12.355Z,101533.97
2023-02-23T22:09:59.365Z,101531.81
2023-02-23T22:12:46.643Z,101535.16
2023-02-23T22:15:34.072Z,101531.91
2023-02-23T22:18:21.025Z,101516.81
2023-02-23T22:21:10.018Z,101517.13
2023-02-23T22:23:57.177Z,101519.06
2023-02-23T22:26:50.573Z,101518.25
2023-02-23T22:29:38.870Z,101518.84
2023-02-23T22:32:27.311Z,101507.31
2023-02-23T22:35:14.321Z,101507.63
2023-02-23T22:38:01.282Z,101502.41
2023-02-23T22:40:48.301Z,101502.41
2023-02-23T22:43:35.253Z,101501.31
2023-02-23T22:46:24.118Z,101499.66
2023-02-23T22:49:11.921Z,101492.53
2023-02-23T22:52:03.516Z,101487.63
2023-02-23T22:54:51.310Z,101494.25
2023-02-23T22:57:39.897Z,101507.19
2023-02-23T23:00:27.874Z,101487.09
2023-02-23T23:03:14.808Z,101480.81
2023-02-23T23:06:08.126Z,101481.09
2023-02-23T23:08:56.527Z,101475.59
2023-02-23T23:11:44.269Z,101461.31
2023-02-23T23:14:32.672Z,101467.66
2023-02-23T23:17:20.270Z,101473.16
2023-02-23T23:20:11.879Z,101463.56
2023-02-23T23:22:58.807Z,101465.50
2023-02-23T23:25:47.458Z,101464.97
2023-02-23T23:28:43.468Z,101469.06
2023-02-23T23:31:32.652Z,101462.50
2023-02-23T23:34:22.482Z,101463.66
2023-02-23T23:37:09.800Z,101462.00
2023-02-23T23:40:00.180Z,101460.91
2023-02-23T23:42:48.101Z,101452.66
2023-02-23T23:45:38.247Z,101454.56
2023-02-23T23:48:25.436Z,101456.81
2023-02-23T23:51:12.470Z,101449.66
2023-02-23T23:54:01.308Z,101444.47
2023-02-23T23:56:49.717Z,101447.84
2023-02-23T23:59:41.577Z,101447.84
